Wasilla, Alaska
Current Conditions -  °F | °C
As of 3:16 PM on Thursday 18 Dec 2014 (Local Time) from PAWS Reporting Station
Clear Clear  
Wind Chill:   Ceiling: Unl
Heat Index: 16°   Visibility: 10mi
Dew Point:   Wind: 7mph
Humidity: 68%   Direction: 260°W
Pressure: 29.38"   Gusts: NA
Location:  61.58°N, 149.45°W
Report Text: PAWS 190016Z AUTO 26006KT 10SM CLR M09/M14 A2938 RMK AO1
Loading
Personal Weather Stations






























Interactive Weather Map New forecast layout! Learn more

10-Day Weather Forecast

Advertisements
Track Severe Weather on mobile